Time;durP1;ratioP1;P1;durP2;ratioP2;P2;SDS_P1;SDS_P2;PMS_P1;PMS_P2;Temp;Humidity;BMP_temperature;BMP_pressure;BME280_temperature;BME280_humidity;BME280_pressure;Samples;Min_cycle;Max_cycle;Signal;HPM_P1;HPM_P2
2022/04/27 00:01:31;;;;;;;7.47;5.10;;;12.20;80.00;;;;;;5112733;28;20436;-46
2022/04/27 00:03:58;;;;;;;6.30;5.67;;;12.50;80.90;;;;;;5112980;28;20487;-45
2022/04/27 00:06:24;;;;;;;5.53;4.90;;;12.30;80.70;;;;;;5112971;28;20533;-45
2022/04/27 00:08:51;;;;;;;5.77;5.23;;;12.40;81.60;;;;;;5112945;28;20440;-45
2022/04/27 00:11:19;;;;;;;10.00;6.17;;;12.70;82.80;;;;;;5113021;28;20437;-45
2022/04/27 00:13:46;;;;;;;6.57;5.77;;;12.20;82.30;;;;;;5112448;28;20989;-44
2022/04/27 00:16:12;;;;;;;7.47;5.80;;;12.10;82.50;;;;;;5112515;28;20436;-44
2022/04/27 00:18:39;;;;;;;6.53;5.57;;;12.30;82.50;;;;;;5112212;28;20819;-44
2022/04/27 00:21:06;;;;;;;6.70;5.10;;;12.20;83.40;;;;;;5113126;28;20534;-46
2022/04/27 00:23:34;;;;;;;7.30;5.73;;;11.50;82.90;;;;;;5112488;28;20516;-46
2022/04/27 00:26:01;;;;;;;6.03;5.00;;;11.80;83.40;;;;;;5112602;28;20451;-45
2022/04/27 00:28:29;;;;;;;5.60;4.97;;;12.30;84.40;;;;;;5112256;28;20795;-43
2022/04/27 00:30:55;;;;;;;5.77;5.17;;;11.90;84.00;;;;;;5112615;28;20887;-44
2022/04/27 00:33:22;;;;;;;8.03;4.77;;;12.00;84.30;;;;;;5112805;28;20450;-44
2022/04/27 00:35:49;;;;;;;10.03;5.30;;;11.80;84.30;;;;;;5094526;28;21020;-44
2022/04/27 00:38:15;;;;;;;5.53;4.90;;;11.90;85.20;;;;;;5094546;28;20459;-44
2022/04/27 00:40:42;;;;;;;6.97;5.53;;;11.60;85.20;;;;;;5094413;28;20446;-44
2022/04/27 00:43:09;;;;;;;7.10;5.30;;;12.30;85.80;;;;;;5112737;28;20457;-45
2022/04/27 00:45:37;;;;;;;6.83;5.80;;;11.80;85.70;;;;;;5112776;28;20484;-44
2022/04/27 00:48:04;;;;;;;7.00;5.63;;;11.70;86.10;;;;;;5113151;28;20425;-45
2022/04/27 00:50:30;;;;;;;9.13;5.53;;;11.50;86.20;;;;;;5112446;28;20773;-45
2022/04/27 00:52:57;;;;;;;6.93;5.40;;;12.10;87.20;;;;;;5097296;28;20469;-45
2022/04/27 00:55:24;;;;;;;11.70;6.17;;;11.60;87.20;;;;;;5116984;28;20437;-44
2022/04/27 00:57:52;;;;;;;8.33;5.50;;;11.40;87.30;;;;;;5117312;28;20430;-44
2022/04/27 01:00:19;;;;;;;8.20;5.13;;;11.50;87.40;;;;;;5116240;28;20434;-44
2022/04/27 01:02:47;;;;;;;6.70;5.60;;;11.60;88.20;;;;;;5116590;28;20439;-44
2022/04/27 01:05:13;;;;;;;8.83;5.93;;;11.30;87.60;;;;;;5116058;28;20576;-44
2022/04/27 01:07:41;;;;;;;8.20;5.10;;;11.40;88.30;;;;;;5098253;28;20448;-44
2022/04/27 01:10:10;;;;;;;8.93;6.30;;;11.50;89.00;;;;;;5097682;28;20470;-44
2022/04/27 01:12:40;;;;;;;6.93;6.20;;;11.20;89.30;;;;;;5097057;28;20855;-44
2022/04/27 01:15:11;;;;;;;5.70;5.10;;;11.20;89.30;;;;;;5097673;28;20457;-46
2022/04/27 01:17:38;;;;;;;7.10;5.63;;;11.30;89.70;;;;;;5096877;28;20823;-45
2022/04/27 01:20:08;;;;;;;7.07;5.73;;;11.10;89.80;;;;;;5096592;28;20441;-53
2022/04/27 01:22:36;;;;;;;6.53;5.80;;;11.10;90.00;;;;;;5097104;28;20524;-45
2022/04/27 01:25:06;;;;;;;7.40;6.30;;;11.10;90.20;;;;;;5097029;28;20603;-45
2022/04/27 01:27:33;;;;;;;8.63;5.50;;;11.20;90.40;;;;;;5097115;28;20445;-45
2022/04/27 01:29:59;;;;;;;5.90;5.30;;;10.60;90.10;;;;;;5096300;28;20452;-45
2022/04/27 01:32:26;;;;;;;7.70;6.60;;;11.00;90.60;;;;;;5115307;28;20509;-45
2022/04/27 01:34:53;;;;;;;7.87;6.07;;;10.50;90.70;;;;;;5097201;28;20814;-45
2022/04/27 01:40:09;;;;;;;8.10;6.87;;;11.30;91.40;;;;;;5113810;28;20446;-45
2022/04/27 01:42:35;;;;;;;8.10;6.67;;;11.00;91.30;;;;;;5096495;28;20449;-45
2022/04/27 01:45:02;;;;;;;8.90;7.20;;;11.00;91.70;;;;;;5114647;28;20479;-45
2022/04/27 01:47:29;;;;;;;13.80;8.10;;;10.60;91.60;;;;;;5115220;28;20433;-45
2022/04/27 01:49:56;;;;;;;8.30;6.37;;;11.00;91.70;;;;;;5096346;28;20486;-46
2022/04/27 01:55:09;;;;;;;8.30;6.70;;;11.10;92.50;;;;;;5096206;28;20432;-45
2022/04/27 01:57:35;;;;;;;8.17;6.60;;;10.80;92.50;;;;;;5096259;28;20971;-45
2022/04/27 02:00:02;;;;;;;8.80;7.07;;;11.00;92.80;;;;;;5095879;28;20455;-45
2022/04/27 02:02:30;;;;;;;7.50;6.80;;;10.30;92.40;;;;;;5114305;28;20477;-45
2022/04/27 02:04:58;;;;;;;7.93;6.50;;;10.30;92.70;;;;;;5096024;28;20999;-45
2022/04/27 02:07:25;;;;;;;8.60;7.47;;;10.70;93.20;;;;;;5115626;28;20929;-46
2022/04/27 02:09:52;;;;;;;9.67;7.30;;;10.90;93.20;;;;;;5097475;28;20497;-45
2022/04/27 02:12:21;;;;;;;11.20;7.30;;;10.20;93.30;;;;;;5097937;28;20450;-45
2022/04/27 02:14:59;;;;;;;12.00;8.43;;;10.50;93.50;;;;;;5098389;28;20539;-45
2022/04/27 02:17:26;;;;;;;7.60;6.90;;;10.50;93.80;;;;;;5116768;28;20886;-45
2022/04/27 02:19:52;;;;;;;11.83;7.77;;;9.90;94.20;;;;;;5098822;28;20503;-45
2022/04/27 02:22:20;;;;;;;8.23;7.17;;;10.60;94.20;;;;;;5098960;28;20998;-45
2022/04/27 02:24:47;;;;;;;8.90;7.93;;;10.20;94.20;;;;;;5117430;28;20848;-45
2022/04/27 02:27:15;;;;;;;8.33;7.20;;;9.80;94.50;;;;;;5099354;28;20810;-45
2022/04/27 02:29:43;;;;;;;8.40;7.37;;;10.20;94.50;;;;;;5096638;28;20455;-45
2022/04/27 02:32:19;;;;;;;8.53;7.43;;;10.20;94.70;;;;;;5095481;28;20450;-45
2022/04/27 02:34:45;;;;;;;9.80;8.60;;;10.40;94.70;;;;;;5095555;28;20472;-45
2022/04/27 02:37:12;;;;;;;11.10;7.10;;;10.00;94.80;;;;;;5095344;28;20815;-45
2022/04/27 02:39:41;;;;;;;9.20;7.80;;;9.30;94.90;;;;;;5095143;28;20443;-45
2022/04/27 02:42:08;;;;;;;10.53;7.60;;;10.20;95.20;;;;;;5095297;28;20982;-45
2022/04/27 02:44:35;;;;;;;9.63;7.80;;;10.10;95.40;;;;;;5113352;28;20998;-45
2022/04/27 02:47:04;;;;;;;8.47;7.57;;;9.90;95.80;;;;;;5095228;28;20960;-45
2022/04/27 02:52:15;;;;;;;10.93;7.27;;;9.80;95.60;;;;;;5095454;28;20477;-45
2022/04/27 02:55:04;;;;;;;8.80;7.37;;;10.20;95.10;;;;;;5095373;28;20543;-45
2022/04/27 02:57:31;;;;;;;11.63;8.90;;;9.60;95.60;;;;;;5095211;28;20443;-45
2022/04/27 02:59:58;;;;;;;8.03;7.00;;;9.60;95.80;;;;;;5113508;28;20427;-45
2022/04/27 03:02:26;;;;;;;11.80;7.63;;;10.00;95.50;;;;;;5095453;28;20451;-45
2022/04/27 03:04:52;;;;;;;10.70;9.03;;;9.50;95.90;;;;;;5095178;28;20488;-45
2022/04/27 03:07:19;;;;;;;10.90;8.20;;;9.60;95.90;;;;;;5095120;28;20444;-45
2022/04/27 03:09:50;;;;;;;10.20;8.27;;;9.80;96.00;;;;;;5094750;28;20508;-45
2022/04/27 03:12:16;;;;;;;13.00;9.03;;;9.50;95.90;;;;;;5094871;28;20439;-45
2022/04/27 03:14:45;;;;;;;10.53;8.20;;;10.00;95.60;;;;;;5094724;28;20460;-46
2022/04/27 03:17:12;;;;;;;10.03;7.97;;;9.90;96.50;;;;;;5094748;28;20444;-45
2022/04/27 03:19:40;;;;;;;14.80;8.20;;;9.60;96.20;;;;;;5094624;28;20505;-45
2022/04/27 03:22:08;;;;;;;11.90;8.30;;;9.90;96.50;;;;;;5094881;28;20480;-45
2022/04/27 03:24:37;;;;;;;8.87;7.97;;;9.50;96.50;;;;;;5094536;28;20463;-45
2022/04/27 03:27:12;;;;;;;8.30;7.40;;;9.40;96.50;;;;;;5094897;28;20512;-45
2022/04/27 03:29:40;;;;;;;10.53;7.87;;;9.70;96.70;;;;;;5094713;28;20475;-45
2022/04/27 03:32:10;;;;;;;9.87;7.73;;;9.90;96.70;;;;;;5095723;28;20808;-45
2022/04/27 03:34:40;;;;;;;14.33;8.53;;;9.50;96.50;;;;;;5094932;28;20499;-45
2022/04/27 03:37:07;;;;;;;8.93;7.90;;;9.60;96.70;;;;;;5094847;28;20442;-45
2022/04/27 03:39:34;;;;;;;9.63;8.10;;;9.40;96.40;;;;;;5094347;28;20964;-45
2022/04/27 03:42:03;;;;;;;9.60;8.10;;;9.40;96.60;;;;;;5094665;28;20448;-45
2022/04/27 03:44:30;;;;;;;10.63;8.47;;;9.80;96.90;;;;;;5094920;28;20796;-45
2022/04/27 03:46:57;;;;;;;14.70;8.57;;;9.90;97.00;;;;;;5095042;28;20868;-45
2022/04/27 03:49:24;;;;;;;10.00;8.20;;;9.10;96.70;;;;;;5094298;28;20482;-44
2022/04/27 03:51:52;;;;;;;12.57;9.13;;;9.20;96.90;;;;;;5094698;28;20478;-44
2022/04/27 03:54:20;;;;;;;10.17;8.03;;;9.50;97.00;;;;;;5094377;28;20895;-44
2022/04/27 03:56:46;;;;;;;9.30;7.60;;;9.40;96.80;;;;;;5094474;28;20951;-44
2022/04/27 03:59:15;;;;;;;10.90;8.10;;;9.40;97.00;;;;;;5094139;28;20476;-44
2022/04/27 04:01:42;;;;;;;12.80;8.30;;;9.30;96.90;;;;;;5094476;28;20467;-44
2022/04/27 04:04:09;;;;;;;9.27;8.20;;;9.20;96.90;;;;;;5094839;28;20475;-44
2022/04/27 04:06:39;;;;;;;13.00;9.90;;;9.30;97.10;;;;;;5093855;28;20471;-44
2022/04/27 04:09:07;;;;;;;10.13;8.70;;;9.30;97.10;;;;;;5093993;28;20493;-44
2022/04/27 04:11:34;;;;;;;14.63;9.20;;;9.50;97.00;;;;;;5094138;28;20439;-44
2022/04/27 04:14:19;;;;;;;11.70;7.73;;;9.40;96.90;;;;;;5112601;28;21029;-45
2022/04/27 04:16:49;;;;;;;8.53;7.43;;;9.50;96.90;;;;;;5094484;28;20435;-45
2022/04/27 04:19:28;;;;;;;10.57;7.97;;;9.30;97.00;;;;;;5112108;28;20924;-45
2022/04/27 04:22:09;;;;;;;11.30;7.50;;;9.40;97.10;;;;;;5094313;28;20967;-43
2022/04/27 04:30:31;;;;;;;11.43;8.53;;;9.40;97.00;;;;;;5097535;28;20440;-45
2022/04/27 04:33:29;;;;;;;11.40;8.40;;;9.40;97.00;;;;;;5097626;28;20851;-44
2022/04/27 04:35:57;;;;;;;9.70;8.70;;;9.60;97.20;;;;;;5097811;28;20432;-44
2022/04/27 04:38:25;;;;;;;11.50;8.13;;;9.80;97.10;;;;;;5097333;28;20491;-45
2022/04/27 04:40:57;;;;;;;17.17;8.53;;;9.40;97.00;;;;;;5097847;28;20447;-45
2022/04/27 04:43:33;;;;;;;8.93;8.03;;;9.60;97.00;;;;;;5097623;28;20490;-45
2022/04/27 04:46:00;;;;;;;12.10;8.97;;;9.00;96.70;;;;;;5097447;28;20482;-44
2022/04/27 04:48:45;;;;;;;11.43;8.70;;;9.60;97.00;;;;;;5097333;28;20455;-46
2022/04/27 04:51:42;;;;;;;10.30;8.17;;;9.50;96.90;;;;;;5097598;28;20456;-44
2022/04/27 04:54:27;;;;;;;10.13;8.10;;;9.80;97.00;;;;;;5115431;28;20442;-45
2022/04/27 04:57:14;;;;;;;14.13;9.30;;;9.70;96.80;;;;;;5115780;28;20435;-44
2022/04/27 05:00:09;;;;;;;17.60;8.93;;;9.80;96.80;;;;;;5096804;28;20634;-45
2022/04/27 05:02:58;;;;;;;13.50;9.33;;;9.90;96.60;;;;;;5096750;28;20545;-45
2022/04/27 05:05:53;;;;;;;14.00;8.33;;;10.60;96.10;;;;;;5115025;28;20471;-46
2022/04/27 05:08:47;;;;;;;13.13;9.37;;;10.30;95.50;;;;;;5096370;28;20470;-45
2022/04/27 05:11:28;;;;;;;9.77;7.90;;;10.30;95.00;;;;;;5096916;28;20529;-45
2022/04/27 05:14:15;;;;;;;18.77;10.17;;;10.20;95.00;;;;;;5115263;28;20459;-45
2022/04/27 05:17:04;;;;;;;9.13;8.13;;;10.10;94.80;;;;;;5096357;28;20444;-45
2022/04/27 05:19:51;;;;;;;10.30;8.20;;;10.70;95.00;;;;;;5114814;28;20830;-45
2022/04/27 05:22:25;;;;;;;11.07;8.33;;;9.90;94.90;;;;;;5096312;28;20443;-46
2022/04/27 05:25:11;;;;;;;13.93;8.17;;;10.70;94.20;;;;;;5096176;28;20460;-44
2022/04/27 05:27:51;;;;;;;9.97;8.03;;;11.10;94.40;;;;;;5096802;28;20453;-44
2022/04/27 05:33:41;;;;;;;11.10;7.63;;;10.70;93.80;;;;;;5114541;28;20474;-45
2022/04/27 05:36:30;;;;;;;14.13;8.67;;;10.90;93.70;;;;;;5103670;28;20448;-44
2022/04/27 05:39:16;;;;;;;10.60;8.53;;;11.10;93.60;;;;;;5113985;28;20436;-44
2022/04/27 05:42:07;;;;;;;12.40;8.47;;;11.30;93.40;;;;;;5096337;28;20536;-44
2022/04/27 05:44:44;;;;;;;12.67;8.60;;;11.40;93.10;;;;;;5096215;28;20828;-45
2022/04/27 05:47:26;;;;;;;11.57;9.30;;;11.70;93.10;;;;;;5095548;28;20490;-46
2022/04/27 05:50:11;;;;;;;11.67;9.27;;;11.00;92.30;;;;;;5113450;28;20431;-45
2022/04/27 05:52:58;;;;;;;10.10;8.87;;;11.60;92.60;;;;;;5096031;28;20464;-45
2022/04/27 05:55:45;;;;;;;14.83;8.70;;;11.90;92.40;;;;;;5114423;28;20428;-45
2022/04/27 05:58:31;;;;;;;9.63;8.60;;;12.20;92.00;;;;;;5113714;28;20429;-45
2022/04/27 06:01:16;;;;;;;12.53;10.20;;;12.70;91.50;;;;;;5095637;28;20442;-46
2022/04/27 06:04:01;;;;;;;35.03;9.80;;;12.40;91.00;;;;;;5095821;28;20538;-45
2022/04/27 06:06:31;;;;;;;12.90;9.03;;;12.50;91.00;;;;;;5095698;28;20560;-45
2022/04/27 06:08:59;;;;;;;10.90;8.80;;;12.20;90.70;;;;;;5095073;28;20441;-45
2022/04/27 06:11:41;;;;;;;12.37;8.87;;;12.30;90.50;;;;;;5095420;28;20984;-45
2022/04/27 06:14:27;;;;;;;10.30;9.07;;;12.10;90.10;;;;;;5114274;28;20444;-44
2022/04/27 06:16:54;;;;;;;12.37;9.77;;;12.20;90.10;;;;;;5096815;28;20946;-45
2022/04/27 06:19:22;;;;;;;10.87;8.10;;;12.50;90.00;;;;;;5095837;28;20461;-44
2022/04/27 06:21:53;;;;;;;13.03;9.80;;;11.90;88.60;;;;;;5096346;28;20446;-46
2022/04/27 06:24:21;;;;;;;11.17;9.97;;;12.40;88.00;;;;;;5095193;28;20470;-47
2022/04/27 06:26:52;;;;;;;10.50;9.27;;;12.90;87.30;;;;;;5096264;28;20549;-45
2022/04/27 06:29:18;;;;;;;15.60;10.00;;;13.00;87.90;;;;;;5113283;28;20463;-46
2022/04/27 06:31:48;;;;;;;22.90;9.53;;;12.70;87.00;;;;;;5094915;28;20541;-44
2022/04/27 06:34:16;;;;;;;14.27;10.07;;;12.10;86.00;;;;;;5094820;28;20968;-45
2022/04/27 06:36:44;;;;;;;19.37;12.07;;;12.90;87.10;;;;;;5094975;28;20452;-45
2022/04/27 06:39:25;;;;;;;15.47;9.87;;;12.40;85.90;;;;;;5094444;28;20454;-46
2022/04/27 06:41:52;;;;;;;13.83;9.80;;;13.00;85.60;;;;;;5094279;28;20447;-45
2022/04/27 06:44:37;;;;;;;11.53;10.07;;;12.90;85.30;;;;;;5113481;28;20458;-45
2022/04/27 06:47:22;;;;;;;11.30;9.63;;;13.40;85.80;;;;;;5112945;28;20825;-46
2022/04/27 06:50:11;;;;;;;13.17;9.73;;;12.70;84.10;;;;;;5112396;28;20532;-45
2022/04/27 06:52:59;;;;;;;11.03;9.43;;;13.00;83.60;;;;;;5112952;28;20974;-46
2022/04/27 06:55:44;;;;;;;14.10;9.37;;;12.70;83.60;;;;;;5113001;28;20428;-46
2022/04/27 06:58:22;;;;;;;12.40;9.20;;;13.20;84.00;;;;;;5112903;28;20732;-45
2022/04/27 07:01:04;;;;;;;22.97;9.30;;;13.10;83.80;;;;;;5094488;28;20466;-46
2022/04/27 07:03:33;;;;;;;12.60;10.33;;;13.10;83.50;;;;;;5112648;28;20489;-46
2022/04/27 07:06:00;;;;;;;14.97;9.53;;;13.00;83.80;;;;;;5093959;28;20469;-46
2022/04/27 07:08:29;;;;;;;12.17;9.40;;;13.30;84.00;;;;;;5093909;28;20449;-46
2022/04/27 07:10:56;;;;;;;9.70;8.60;;;13.00;83.50;;;;;;5094553;28;20841;-46
2022/04/27 07:13:23;;;;;;;11.70;8.43;;;13.40;83.50;;;;;;5112196;28;20941;-46
2022/04/27 07:15:49;;;;;;;14.10;10.30;;;13.30;83.70;;;;;;5112876;28;20469;-46
2022/04/27 07:18:16;;;;;;;14.20;8.17;;;13.30;84.00;;;;;;5112792;28;20430;-45
2022/04/27 07:20:43;;;;;;;18.33;10.17;;;13.40;83.30;;;;;;5112540;28;20430;-46
2022/04/27 07:23:09;;;;;;;13.53;8.47;;;12.90;82.40;;;;;;5112958;28;20451;-45
2022/04/27 07:25:37;;;;;;;12.53;8.60;;;13.10;81.60;;;;;;5112176;28;20442;-45
2022/04/27 07:28:04;;;;;;;9.53;8.13;;;13.40;81.60;;;;;;5108557;28;20450;-45
2022/04/27 07:30:31;;;;;;;11.70;7.60;;;13.40;81.20;;;;;;5094484;28;20472;-47
2022/04/27 07:32:57;;;;;;;9.20;8.00;;;13.50;80.40;;;;;;5112833;28;20457;-46
2022/04/27 07:35:24;;;;;;;9.67;7.80;;;13.70;80.00;;;;;;5112707;28;20787;-46
2022/04/27 07:37:51;;;;;;;9.53;7.20;;;13.60;79.50;;;;;;5113103;28;20441;-47
2022/04/27 07:40:17;;;;;;;7.60;6.60;;;13.60;79.90;;;;;;5111922;28;20469;-46
2022/04/27 07:42:45;;;;;;;10.07;7.53;;;13.60;79.30;;;;;;5112315;28;20434;-46
2022/04/27 07:45:12;;;;;;;7.10;6.37;;;13.00;78.00;;;;;;5093388;28;20446;-45
2022/04/27 07:47:40;;;;;;;8.20;6.67;;;14.00;78.10;;;;;;5112629;28;20489;-44
2022/04/27 07:50:08;;;;;;;6.80;6.10;;;13.60;77.80;;;;;;5112742;28;20492;-46
2022/04/27 07:52:35;;;;;;;11.50;6.30;;;13.60;77.00;;;;;;5112203;28;20442;-46
2022/04/27 07:55:01;;;;;;;8.13;6.17;;;13.50;75.80;;;;;;5112921;28;20426;-46
2022/04/27 07:57:30;;;;;;;7.83;6.43;;;13.80;75.60;;;;;;5112711;28;20428;-45
2022/04/27 07:59:58;;;;;;;9.10;4.90;;;13.70;75.20;;;;;;5112292;28;20568;-45
2022/04/27 08:02:24;;;;;;;7.63;6.00;;;13.70;73.10;;;;;;5115599;28;20805;-46
2022/04/27 08:04:51;;;;;;;17.70;6.03;;;13.70;74.00;;;;;;5115452;28;20544;-45
2022/04/27 08:07:18;;;;;;;8.73;6.57;;;14.30;73.40;;;;;;5116093;28;20481;-47
2022/04/27 08:09:44;;;;;;;9.23;5.07;;;13.80;73.20;;;;;;5115349;28;20431;-44
2022/04/27 08:12:11;;;;;;;11.47;5.80;;;14.30;73.20;;;;;;5116579;28;20805;-45
2022/04/27 08:14:38;;;;;;;6.10;5.50;;;13.60;71.90;;;;;;5116333;28;20444;-47
2022/04/27 08:17:06;;;;;;;8.10;4.27;;;13.90;71.70;;;;;;5116247;28;20432;-45
2022/04/27 08:19:32;;;;;;;4.97;4.37;;;13.80;67.40;;;;;;5115780;28;20429;-46
2022/04/27 08:22:01;;;;;;;6.43;4.23;;;14.00;68.00;;;;;;5115407;28;20439;-46
2022/04/27 08:24:28;;;;;;;4.40;3.47;;;14.30;68.50;;;;;;5113705;28;20834;-45
2022/04/27 08:26:55;;;;;;;5.40;3.23;;;13.90;67.40;;;;;;5115390;28;20478;-46
2022/04/27 08:29:21;;;;;;;5.60;3.53;;;14.20;66.60;;;;;;5115498;28;20459;-45
2022/04/27 08:31:48;;;;;;;4.67;4.13;;;14.00;65.50;;;;;;5115732;28;20462;-44
2022/04/27 08:34:16;;;;;;;4.73;3.67;;;14.20;64.40;;;;;;5115305;28;20458;-45
2022/04/27 08:36:43;;;;;;;5.80;3.20;;;14.60;65.60;;;;;;5115853;28;20457;-46
2022/04/27 08:39:10;;;;;;;4.43;3.70;;;14.30;65.80;;;;;;5115665;28;20423;-46
2022/04/27 08:41:37;;;;;;;5.50;3.83;;;14.20;65.20;;;;;;5115464;28;20442;-46
2022/04/27 08:44:07;;;;;;;6.03;3.43;;;14.20;64.80;;;;;;5115474;28;20447;-46
2022/04/27 08:46:36;;;;;;;8.53;6.17;;;14.20;64.80;;;;;;5115522;28;20467;-46
2022/04/27 08:49:03;;;;;;;6.33;2.87;;;14.20;64.80;;;;;;5115038;28;20433;-46
2022/04/27 08:51:31;;;;;;;6.40;2.80;;;14.00;62.90;;;;;;5115436;28;20431;-46
2022/04/27 08:53:58;;;;;;;4.87;2.77;;;13.80;61.40;;;;;;5115123;28;20451;-46
2022/04/27 08:56:26;;;;;;;5.67;3.43;;;14.40;62.10;;;;;;5096591;28;20475;-46
2022/04/27 08:58:53;;;;;;;4.97;3.80;;;13.80;61.70;;;;;;5115048;28;20447;-46
2022/04/27 09:01:20;;;;;;;6.20;4.00;;;14.30;62.10;;;;;;5115131;28;20920;-46
2022/04/27 09:03:46;;;;;;;3.90;3.50;;;14.40;62.30;;;;;;5115483;28;20475;-45
2022/04/27 09:06:16;;;;;;;5.87;3.57;;;14.60;63.50;;;;;;5097370;28;20504;-45
2022/04/27 09:08:45;;;;;;;3.97;3.60;;;15.20;64.20;;;;;;5114825;28;20827;-46
2022/04/27 09:11:17;;;;;;;3.40;3.10;;;15.10;61.70;;;;;;5115173;28;20462;-45
2022/04/27 09:13:52;;;;;;;6.00;3.93;;;15.10;61.00;;;;;;5113950;28;20967;-46
2022/04/27 09:16:21;;;;;;;5.50;4.33;;;15.20;60.80;;;;;;5114778;28;20424;-45
2022/04/27 09:22:00;;;;;;;5.30;3.83;;;15.00;61.10;;;;;;5114687;28;20512;-46
2022/04/27 09:24:30;;;;;;;4.40;3.50;;;15.30;61.70;;;;;;5114578;28;20460;-46
2022/04/27 09:27:03;;;;;;;4.63;3.97;;;15.00;61.60;;;;;;5115122;28;20467;-46
2022/04/27 09:29:30;;;;;;;4.33;3.80;;;14.80;60.70;;;;;;5096296;28;20448;-45
2022/04/27 09:31:58;;;;;;;4.50;3.43;;;15.60;61.50;;;;;;5114811;28;20437;-45
2022/04/27 09:34:31;;;;;;;6.27;3.13;;;15.50;60.90;;;;;;5114395;28;20456;-46
2022/04/27 09:37:02;;;;;;;3.87;3.50;;;15.40;60.40;;;;;;5114664;28;20489;-45
2022/04/27 09:39:30;;;;;;;6.87;3.07;;;15.50;59.40;;;;;;5113582;28;20455;-45
2022/04/27 09:42:03;;;;;;;4.47;2.50;;;15.60;59.20;;;;;;5114647;28;20435;-45
2022/04/27 09:44:32;;;;;;;3.77;3.13;;;15.40;58.70;;;;;;5114311;28;20455;-45
2022/04/27 09:46:59;;;;;;;4.60;3.07;;;14.90;58.60;;;;;;5114266;28;20476;-46
2022/04/27 09:49:26;;;;;;;4.00;3.60;;;15.40;57.80;;;;;;5113845;28;20511;-45
2022/04/27 09:51:54;;;;;;;3.80;3.40;;;15.20;57.80;;;;;;5114258;28;20432;-45
2022/04/27 09:54:23;;;;;;;3.10;2.80;;;15.70;57.30;;;;;;5114898;28;21090;-45
2022/04/27 09:56:54;;;;;;;6.03;3.80;;;15.50;57.30;;;;;;5114328;28;20556;-45
2022/04/27 09:59:26;;;;;;;7.50;2.90;;;15.70;57.40;;;;;;5095121;28;21029;-45
2022/04/27 10:01:56;;;;;;;3.07;2.77;;;16.00;56.80;;;;;;5113803;28;20486;-45
2022/04/27 10:04:25;;;;;;;3.73;3.00;;;15.80;56.30;;;;;;5114931;28;20470;-43
2022/04/27 10:06:53;;;;;;;3.20;2.67;;;15.40;55.90;;;;;;5115272;28;20471;-44
2022/04/27 10:09:20;;;;;;;3.43;2.70;;;15.00;55.70;;;;;;5095773;28;20489;-46
2022/04/27 10:11:46;;;;;;;4.23;2.93;;;15.50;56.30;;;;;;5114852;28;20447;-45
2022/04/27 10:14:14;;;;;;;2.50;2.30;;;15.20;55.50;;;;;;5114579;28;21002;-45
2022/04/27 10:16:41;;;;;;;4.73;2.83;;;15.00;54.80;;;;;;5114752;28;20439;-44
2022/04/27 10:19:11;;;;;;;2.60;1.83;;;15.30;54.20;;;;;;5118851;28;20779;-44
2022/04/27 10:21:43;;;;;;;3.40;2.57;;;15.90;54.50;;;;;;5120590;28;20439;-44
2022/04/27 10:24:10;;;;;;;3.57;2.40;;;15.30;53.80;;;;;;5118042;28;20467;-44
2022/04/27 10:26:37;;;;;;;3.13;2.43;;;16.10;54.30;;;;;;5121978;28;20543;-45
2022/04/27 10:29:05;;;;;;;5.77;3.07;;;15.70;54.40;;;;;;5122144;28;20428;-44
2022/04/27 10:31:59;;;;;;;4.40;2.50;;;16.40;55.40;;;;;;5120253;28;20428;-46
2022/04/27 10:34:26;;;;;;;6.23;3.00;;;16.10;53.40;;;;;;5122310;28;20462;-47
2022/04/27 10:36:54;;;;;;;7.73;3.13;;;16.10;53.40;;;;;;5123364;28;20468;-44
2022/04/27 10:39:25;;;;;;;4.20;2.83;;;16.40;53.40;;;;;;5121536;28;20420;-45
2022/04/27 10:42:25;;;;;;;7.20;2.72;;;16.50;53.00;;;;;;5120407;28;20507;-44
2022/04/27 10:45:08;;;;;;;3.40;2.03;;;16.80;52.80;;;;;;5114639;28;20242;-43
2022/04/27 10:47:42;;;;;;;6.00;2.20;;;17.20;52.60;;;;;;5120740;28;20471;-44
2022/04/27 10:50:33;;;;;;;3.90;2.70;;;17.00;52.30;;;;;;5120069;28;20441;-46
2022/04/27 10:53:16;;;;;;;5.40;2.90;;;16.90;51.90;;;;;;5113339;28;20523;-45
2022/04/27 10:55:45;;;;;;;4.17;2.70;;;17.20;51.50;;;;;;5114446;28;20837;-44
2022/04/27 10:58:24;;;;;;;5.00;2.40;;;17.00;52.10;;;;;;5113979;28;20469;-45
2022/04/27 11:01:20;;;;;;;5.47;3.10;;;16.70;51.40;;;;;;5113283;28;20678;-44
2022/04/27 11:03:57;;;;;;;2.40;2.20;;;17.30;51.40;;;;;;5113507;28;20568;-45
2022/04/27 11:06:24;;;;;;;2.90;2.33;;;16.90;51.20;;;;;;5114500;28;20436;-44
2022/04/27 11:09:08;;;;;;;7.53;2.97;;;16.80;51.00;;;;;;5111580;28;20513;-44
2022/04/27 11:11:51;;;;;;;5.33;2.50;;;16.70;51.50;;;;;;5113851;28;20557;-46
2022/04/27 11:14:30;;;;;;;3.20;2.67;;;16.90;51.40;;;;;;5116787;28;20835;-44
2022/04/27 11:16:57;;;;;;;3.23;2.70;;;16.90;51.10;;;;;;5113356;28;20482;-43
2022/04/27 11:19:35;;;;;;;2.97;2.60;;;16.80;51.20;;;;;;5112925;28;20437;-44
2022/04/27 11:22:15;;;;;;;2.83;2.60;;;17.00;50.60;;;;;;5095252;28;20598;-46
2022/04/27 11:24:44;;;;;;;2.97;2.20;;;16.90;50.00;;;;;;5113506;28;20466;-44
2022/04/27 11:27:12;;;;;;;5.40;2.93;;;17.40;50.20;;;;;;5113756;28;20473;-45
2022/04/27 11:29:39;;;;;;;3.40;2.47;;;17.20;49.70;;;;;;5113078;28;20437;-45
2022/04/27 11:32:07;;;;;;;4.10;2.10;;;17.90;50.10;;;;;;5112994;28;20436;-46
2022/04/27 11:34:35;;;;;;;3.57;2.63;;;17.80;49.40;;;;;;5113886;28;20458;-45
2022/04/27 11:37:15;;;;;;;4.50;2.70;;;17.60;49.40;;;;;;5113814;28;20545;-43
2022/04/27 11:39:41;;;;;;;7.00;2.90;;;17.60;50.30;;;;;;5113620;28;20430;-44
2022/04/27 11:42:10;;;;;;;4.77;2.30;;;17.60;50.60;;;;;;5113818;28;20521;-45
2022/04/27 11:44:36;;;;;;;5.30;2.40;;;17.60;50.70;;;;;;5115171;28;20462;-45
2022/04/27 11:47:03;;;;;;;4.23;2.63;;;17.30;50.30;;;;;;5114155;28;20846;-45
2022/04/27 11:49:30;;;;;;;3.93;3.00;;;18.10;50.80;;;;;;5113577;28;20458;-47
2022/04/27 11:51:58;;;;;;;4.10;2.30;;;17.10;49.80;;;;;;5114038;28;20830;-46
2022/04/27 11:54:29;;;;;;;3.73;2.73;;;16.80;49.10;;;;;;5114134;28;20445;-44
2022/04/27 11:56:57;;;;;;;3.90;2.63;;;17.20;49.20;;;;;;5114039;28;20445;-44
2022/04/27 11:59:24;;;;;;;2.90;2.60;;;17.10;49.20;;;;;;5114034;28;20435;-44
2022/04/27 12:01:54;;;;;;;4.90;2.83;;;17.30;50.50;;;;;;5114778;28;20445;-45
2022/04/27 12:04:21;;;;;;;3.10;2.67;;;17.30;50.90;;;;;;5113771;28;20492;-44
2022/04/27 12:06:47;;;;;;;3.50;2.83;;;17.00;50.70;;;;;;5114950;28;21027;-45
2022/04/27 12:09:18;;;;;;;5.53;3.40;;;17.00;51.00;;;;;;5114862;28;20481;-45
2022/04/27 12:11:45;;;;;;;4.03;2.53;;;16.90;51.20;;;;;;5114327;28;20424;-45
2022/04/27 12:14:13;;;;;;;5.20;2.70;;;17.00;51.30;;;;;;5114766;28;20955;-44
2022/04/27 12:16:42;;;;;;;3.73;2.63;;;16.80;51.30;;;;;;5115088;28;20795;-44
2022/04/27 12:19:09;;;;;;;5.60;3.07;;;16.90;51.00;;;;;;5114429;28;20527;-43
2022/04/27 12:21:37;;;;;;;4.47;3.00;;;16.30;50.40;;;;;;5114337;28;20433;-45
2022/04/27 12:24:16;;;;;;;3.03;2.20;;;17.30;50.70;;;;;;5115496;28;20463;-45
2022/04/27 12:26:44;;;;;;;3.47;2.23;;;16.90;48.90;;;;;;5115383;28;20780;-44
2022/04/27 12:29:11;;;;;;;3.33;3.00;;;17.60;49.00;;;;;;5113906;28;20478;-45
2022/04/27 12:31:38;;;;;;;3.50;2.90;;;17.30;48.60;;;;;;5114148;28;20440;-44
2022/04/27 12:37:29;;;;;;;3.00;2.40;;;17.40;49.00;;;;;;5113381;28;20509;-45
2022/04/27 12:39:39;;;;;;;4.20;2.90;;;17.50;48.90;;;;;;5113361;28;20530;-44
2022/04/27 12:42:09;;;;;;;3.83;2.23;;;17.80;49.50;;;;;;5113604;28;20437;-46
2022/04/27 12:44:40;;;;;;;3.40;2.47;;;17.50;49.20;;;;;;5113382;28;20516;-45
2022/04/27 12:47:08;;;;;;;6.53;3.40;;;17.70;48.50;;;;;;5113339;28;20442;-44
2022/04/27 12:49:36;;;;;;;4.70;2.80;;;17.50;48.40;;;;;;5116568;28;20569;-46
2022/04/27 12:52:17;;;;;;;4.13;2.30;;;17.70;48.00;;;;;;5116868;28;20495;-44
2022/04/27 12:54:46;;;;;;;3.70;2.50;;;17.80;48.10;;;;;;5116641;28;20472;-45
2022/04/27 12:57:14;;;;;;;3.97;2.57;;;17.90;48.50;;;;;;5116487;28;20430;-45
2022/04/27 12:59:54;;;;;;;5.57;2.63;;;17.90;48.00;;;;;;5116186;28;20443;-45
2022/04/27 13:02:21;;;;;;;3.93;1.87;;;17.80;47.90;;;;;;5117880;28;20939;-45
2022/04/27 13:04:47;;;;;;;3.67;2.77;;;17.70;47.90;;;;;;5116618;28;20485;-44
2022/04/27 13:07:14;;;;;;;3.53;2.30;;;17.90;48.10;;;;;;5117321;28;20427;-47
2022/04/27 13:12:30;;;;;;;3.87;2.60;;;17.70;47.90;;;;;;5116747;28;20488;-45
2022/04/27 13:14:57;;;;;;;2.93;2.40;;;17.20;47.60;;;;;;5116537;28;20453;-47
2022/04/27 13:17:24;;;;;;;4.27;2.23;;;17.70;47.90;;;;;;5117548;28;20457;-44
2022/04/27 13:19:51;;;;;;;3.77;2.70;;;17.70;47.90;;;;;;5116520;28;20448;-46
2022/04/27 13:22:18;;;;;;;5.27;2.60;;;17.90;48.00;;;;;;5116936;28;20438;-46
2022/04/27 13:24:45;;;;;;;3.77;3.20;;;17.20;47.70;;;;;;5116349;28;20536;-44
2022/04/27 13:27:11;;;;;;;4.97;2.67;;;18.00;48.20;;;;;;5117315;28;20439;-46
2022/04/27 13:29:39;;;;;;;4.13;2.87;;;17.50;47.70;;;;;;5116045;28;20474;-45
2022/04/27 13:32:07;;;;;;;7.33;2.97;;;17.80;47.90;;;;;;5115716;28;20922;-45